Time;durP1;ratioP1;P1;durP2;ratioP2;P2;SDS_P1;SDS_P2;PMS_P1;PMS_P2;Temp;Humidity;BMP_temperature;BMP_pressure;BME280_temperature;BME280_humidity;BME280_pressure;Samples;Min_cycle;Max_cycle;Signal;HPM_P1;HPM_P2
2022/07/04 00:01:10;;;;;;;0.10;0.10;;;;;;;13.35;100.00;101986.56;10462788;28;20049;-75
2022/07/04 00:06:11;;;;;;;0.22;0.20;;;;;;;13.31;100.00;101989.03;10462204;28;20484;-75
2022/07/04 00:11:13;;;;;;;0.00;0.00;;;;;;;13.25;100.00;101982.78;10462451;28;20053;-76
2022/07/04 00:16:14;;;;;;;0.20;0.20;;;;;;;13.11;100.00;101987.50;10462004;28;20369;-75
2022/07/04 00:21:16;;;;;;;0.20;0.10;;;;;;;12.90;100.00;101982.50;10460698;28;20057;-75
2022/07/04 00:26:18;;;;;;;0.00;0.00;;;;;;;12.91;100.00;101989.44;10462253;28;20041;-75
2022/07/04 00:31:19;;;;;;;0.25;0.25;;;;;;;12.78;100.00;101988.13;10461331;28;20049;-76
2022/07/04 00:36:21;;;;;;;0.15;0.15;;;;;;;12.73;100.00;101987.09;10461386;28;20041;-75
2022/07/04 00:41:23;;;;;;;0.00;0.00;;;;;;;12.65;100.00;101992.88;10459123;28;20504;-75
2022/07/04 00:46:25;;;;;;;0.00;0.00;;;;;;;12.70;100.00;101993.91;10461075;28;20064;-76
2022/07/04 00:51:27;;;;;;;0.10;0.10;;;;;;;12.62;100.00;101992.75;10460780;28;20049;-75
2022/07/04 00:56:29;;;;;;;1.45;0.32;;;;;;;12.55;100.00;101985.63;10460612;28;20086;-75
2022/07/04 01:01:31;;;;;;;0.25;0.20;;;;;;;12.58;100.00;101980.56;10442598;28;20071;-76
2022/07/04 01:06:33;;;;;;;0.20;0.10;;;;;;;12.41;100.00;101982.56;10460278;28;20087;-75
2022/07/04 01:11:35;;;;;;;0.00;0.00;;;;;;;12.52;100.00;101980.38;10460099;28;20053;-75
2022/07/04 01:16:37;;;;;;;0.17;0.10;;;;;;;12.21;100.00;101984.44;10459341;28;20052;-75
2022/07/04 01:21:38;;;;;;;0.00;0.00;;;;;;;12.20;100.00;101987.84;10441510;28;20063;-75
2022/07/04 01:26:40;;;;;;;0.10;0.10;;;;;;;12.10;100.00;101991.78;10441641;28;20132;-75
2022/07/04 01:31:42;;;;;;;0.20;0.10;;;;;;;12.08;100.00;101977.06;10459286;28;20075;-75
2022/07/04 01:36:43;;;;;;;0.00;0.00;;;;;;;11.94;100.00;101985.16;10458919;28;20045;-75
2022/07/04 01:41:45;;;;;;;0.17;0.00;;;;;;;11.77;100.00;101975.88;10472229;28;20049;-75
2022/07/04 01:46:47;;;;;;;0.17;0.10;;;;;;;11.92;100.00;101968.69;10458679;28;20056;-75
2022/07/04 01:51:50;;;;;;;0.17;0.10;;;;;;;11.94;100.00;101967.06;10457340;28;20072;-75
2022/07/04 01:56:51;;;;;;;0.20;0.17;;;;;;;11.84;100.00;101967.53;10457193;28;20045;-76
2022/07/04 02:01:53;;;;;;;0.65;0.43;;;;;;;11.97;100.00;101964.63;10449656;28;20045;-76
2022/07/04 02:06:55;;;;;;;1.30;0.43;;;;;;;11.88;100.00;101974.56;10458039;28;20049;-76
2022/07/04 02:17:19;;;;;;;0.20;0.20;;;;;;;11.88;100.00;101979.72;10457416;28;20037;-76
2022/07/04 02:22:20;;;;;;;0.38;0.20;;;;;;;11.79;100.00;101963.91;10457211;28;20454;-75
2022/07/04 02:27:22;;;;;;;0.15;0.15;;;;;;;11.59;100.00;101971.75;10457085;28;20481;-75
2022/07/04 02:32:24;;;;;;;0.03;0.00;;;;;;;11.52;100.00;101959.44;10456007;28;20049;-76
2022/07/04 02:37:25;;;;;;;0.10;0.00;;;;;;;11.56;100.00;101967.34;10457013;28;20048;-76
2022/07/04 02:42:33;;;;;;;0.20;0.20;;;;;;;11.43;100.00;101965.13;10457511;28;20092;-76
2022/07/04 02:47:35;;;;;;;0.00;0.00;;;;;;;11.43;100.00;101952.22;10456515;28;20045;-76
2022/07/04 02:52:37;;;;;;;0.17;0.00;;;;;;;11.43;100.00;101965.97;10456685;28;20056;-76
2022/07/04 02:57:38;;;;;;;0.22;0.20;;;;;;;11.27;100.00;101971.38;10456614;28;20083;-75
2022/07/04 03:02:40;;;;;;;0.00;0.00;;;;;;;11.09;100.00;101974.97;10456716;28;20049;-75
2022/07/04 03:07:41;;;;;;;1.75;0.80;;;;;;;11.14;100.00;101982.00;10438451;28;20098;-75
2022/07/04 03:12:43;;;;;;;0.08;0.08;;;;;;;11.11;100.00;101983.66;10438808;28;20449;-76
2022/07/04 03:17:44;;;;;;;0.10;0.10;;;;;;;11.18;100.00;101973.56;10438155;28;20098;-75
2022/07/04 03:22:46;;;;;;;0.10;0.10;;;;;;;11.24;100.00;101976.41;10456094;28;20045;-76
2022/07/04 03:27:47;;;;;;;0.60;0.10;;;;;;;11.43;100.00;101981.47;10456050;28;20558;-75
2022/07/04 03:32:52;;;;;;;0.05;0.03;;;;;;;11.20;100.00;101982.25;10455849;28;20136;-76
2022/07/04 03:37:54;;;;;;;0.45;0.30;;;;;;;11.28;100.00;101993.78;10455649;28;20045;-76
2022/07/04 03:42:56;;;;;;;0.60;0.60;;;;;;;11.13;100.00;102000.88;10459823;28;20492;-75
2022/07/04 03:47:59;;;;;;;0.15;0.00;;;;;;;11.14;100.00;102015.53;10463434;28;20040;-75
2022/07/04 03:53:00;;;;;;;0.10;0.00;;;;;;;11.25;100.00;102011.69;10463234;28;20049;-75
2022/07/04 03:58:04;;;;;;;0.75;0.20;;;;;;;11.13;100.00;102021.53;10463423;28;20037;-76
2022/07/04 04:05:26;;;;;;;0.55;0.40;;;;;;;11.25;100.00;102032.34;10462978;28;20045;-76
2022/07/04 04:08:27;;;;;;;0.20;0.20;;;;;;;11.52;100.00;102026.53;10463070;28;20072;-76
2022/07/04 04:13:28;;;;;;;0.10;0.10;;;;;;;11.66;100.00;102030.53;10462706;28;20055;-75
2022/07/04 04:18:31;;;;;;;0.55;0.20;;;;;;;11.71;100.00;102034.19;10461915;28;20102;-76
2022/07/04 04:23:32;;;;;;;0.22;0.20;;;;;;;11.78;100.00;102049.94;10461870;28;20048;-75
2022/07/04 04:28:34;;;;;;;0.30;0.30;;;;;;;11.89;100.00;102054.69;10461699;28;20400;-76
2022/07/04 04:33:36;;;;;;;0.35;0.28;;;;;;;12.06;100.00;102052.78;10461581;28;20373;-76
2022/07/04 04:38:37;;;;;;;0.50;0.20;;;;;;;12.41;100.00;102061.78;10461306;28;20045;-76
2022/07/04 04:43:39;;;;;;;0.43;0.43;;;;;;;12.77;100.00;102063.97;10496428;28;20052;-76
2022/07/04 04:48:40;;;;;;;0.55;0.43;;;;;;;12.95;100.00;102063.72;10462887;28;20041;-76
2022/07/04 04:53:42;;;;;;;1.40;0.60;;;;;;;12.99;100.00;102063.00;10459599;28;20037;-75
2022/07/04 04:58:44;;;;;;;0.50;0.50;;;;;;;13.25;100.00;102068.19;10460441;28;20044;-76
2022/07/04 05:03:45;;;;;;;1.65;0.55;;;;;;;13.47;100.00;102060.34;10460165;28;20044;-75
2022/07/04 05:08:48;;;;;;;0.45;0.45;;;;;;;13.57;100.00;102051.16;10460231;28;20037;-75
2022/07/04 05:13:49;;;;;;;1.58;0.60;;;;;;;13.87;100.00;102055.53;10442371;28;20546;-75
2022/07/04 05:18:51;;;;;;;0.30;0.30;;;;;;;13.78;100.00;102056.13;10459656;28;20041;-75
2022/07/04 05:23:53;;;;;;;1.33;0.82;;;;;;;14.02;100.00;102047.34;10460368;28;20438;-75
2022/07/04 05:28:55;;;;;;;1.00;0.70;;;;;;;14.18;100.00;102042.63;10459643;28;20060;-76
2022/07/04 05:33:58;;;;;;;0.65;0.55;;;;;;;14.45;100.00;102045.13;10459735;28;20107;-75
2022/07/04 05:38:59;;;;;;;0.60;0.40;;;;;;;14.68;100.00;102042.31;10459099;28;20554;-74
2022/07/04 05:44:01;;;;;;;0.82;0.65;;;;;;;14.88;100.00;102041.13;10457821;28;20057;-76
2022/07/04 05:49:02;;;;;;;0.75;0.40;;;;;;;14.95;100.00;102030.91;10458690;28;20037;-76
2022/07/04 05:54:04;;;;;;;0.57;0.47;;;;;;;15.22;100.00;102036.81;10458527;28;20048;-75
2022/07/04 05:59:05;;;;;;;0.63;0.57;;;;;;;15.45;100.00;102033.00;10458115;28;20041;-75
2022/07/04 06:04:07;;;;;;;4.97;1.02;;;;;;;15.41;100.00;102042.44;10457722;28;20049;-76
2022/07/04 06:09:08;;;;;;;0.52;0.47;;;;;;;16.00;100.00;102043.81;10457843;28;20040;-75
2022/07/04 06:14:17;;;;;;;0.52;0.52;;;;;;;15.94;100.00;102041.09;10458012;28;20041;-76
2022/07/04 06:19:18;;;;;;;2.10;0.88;;;;;;;16.12;100.00;102038.88;10439579;28;20523;-76
2022/07/04 06:24:20;;;;;;;1.67;0.63;;;;;;;16.37;100.00;102044.59;10457182;28;20063;-76
2022/07/04 06:29:21;;;;;;;1.58;0.40;;;;;;;16.56;100.00;102034.56;10458492;28;20106;-76
2022/07/04 06:39:44;;;;;;;0.85;0.55;;;;;;;16.83;100.00;102028.97;10457169;28;20431;-76
2022/07/04 06:44:45;;;;;;;0.40;0.32;;;;;;;16.78;100.00;102031.50;10444129;28;20064;-76
2022/07/04 06:49:47;;;;;;;0.65;0.65;;;;;;;16.98;100.00;102032.75;10442555;28;20048;-75
2022/07/04 06:54:49;;;;;;;0.25;0.25;;;;;;;17.46;100.00;102038.72;10457817;28;20389;-77
2022/07/04 06:59:50;;;;;;;0.50;0.15;;;;;;;17.96;100.00;102028.19;10469206;28;20488;-77
2022/07/04 07:04:56;;;;;;;1.02;0.38;;;;;;;18.45;100.00;102035.72;10484533;28;20059;-76
2022/07/04 07:09:57;;;;;;;0.15;0.15;;;;;;;18.34;100.00;102033.00;10456481;28;20041;-75
2022/07/04 07:15:00;;;;;;;0.00;0.00;;;;;;;18.71;100.00;102030.78;10456250;28;20496;-76
2022/07/04 07:20:03;;;;;;;0.60;0.40;;;;;;;19.04;97.62;102023.28;10464183;28;20045;-77
2022/07/04 07:25:05;;;;;;;0.05;0.05;;;;;;;19.07;97.19;102018.06;10464180;28;20040;-76
2022/07/04 07:30:08;;;;;;;7.60;0.73;;;;;;;19.14;99.43;102013.78;10464366;28;20482;-76
2022/07/04 07:35:10;;;;;;;4.28;1.08;;;;;;;19.07;99.85;102006.75;10446530;28;20055;-75
2022/07/04 07:40:11;;;;;;;0.40;0.40;;;;;;;18.18;100.00;102020.63;10463507;28;20045;-77
2022/07/04 07:45:13;;;;;;;0.20;0.20;;;;;;;19.51;96.39;102008.81;10428822;28;20396;-76
2022/07/04 07:50:15;;;;;;;0.00;0.00;;;;;;;19.16;96.35;102004.22;10462784;28;20523;-76
2022/07/04 07:55:16;;;;;;;0.63;0.40;;;;;;;19.26;95.84;102003.41;10462686;28;20538;-76
2022/07/04 08:00:18;;;;;;;0.43;0.38;;;;;;;19.68;92.40;101990.63;10445254;28;20076;-75
2022/07/04 08:05:40;;;;;;;0.95;0.40;;;;;;;20.15;93.33;101986.47;10462785;28;20148;-76
2022/07/04 08:10:41;;;;;;;0.40;0.30;;;;;;;20.47;90.07;101974.38;10444728;28;20538;-77
2022/07/04 08:15:43;;;;;;;0.40;0.30;;;;;;;20.43;87.10;101965.66;10462220;28;20045;-75
2022/07/04 08:20:44;;;;;;;0.52;0.30;;;;;;;20.12;85.85;101969.03;10437243;28;20045;-76
2022/07/04 08:26:03;;;;;;;1.38;0.40;;;;;;;20.59;84.89;101977.84;10428420;28;20072;-77
2022/07/04 08:31:04;;;;;;;0.10;0.10;;;;;;;21.42;83.25;101976.09;10461538;28;20045;-76
2022/07/04 08:36:06;;;;;;;0.03;0.03;;;;;;;20.67;80.79;101979.59;10461110;28;20127;-75
2022/07/04 08:41:08;;;;;;;2.83;0.60;;;;;;;21.87;78.32;101984.75;10460726;28;20045;-77
2022/07/04 08:46:10;;;;;;;0.28;0.20;;;;;;;21.82;73.65;101988.25;10460589;28;20104;-75
2022/07/04 08:52:01;;;;;;;0.20;0.20;;;;;;;21.03;78.74;101983.16;10460550;28;20045;-76
2022/07/04 09:02:29;;;;;;;0.10;0.08;;;;;;;21.84;75.58;101989.13;10445116;28;20053;-75
2022/07/04 09:07:31;;;;;;;1.00;0.90;;;;;;;21.50;74.82;102000.56;10459827;28;20037;-76
2022/07/04 09:12:32;;;;;;;0.10;0.10;;;;;;;21.36;75.45;101997.09;10459611;28;20098;-76
2022/07/04 09:17:54;;;;;;;0.38;0.22;;;;;;;21.04;76.96;101998.88;10451861;28;20049;-75
2022/07/04 09:22:56;;;;;;;0.10;0.10;;;;;;;20.85;80.22;102002.38;10403205;28;20120;-75
2022/07/04 09:27:57;;;;;;;1.08;0.88;;;;;;;21.15;76.46;101998.88;10453587;28;20048;-77
2022/07/04 09:33:04;;;;;;;0.20;0.20;;;;;;;22.39;75.35;101993.25;10457791;28;20044;-76
2022/07/04 09:38:12;;;;;;;0.00;0.00;;;;;;;22.92;74.33;101987.63;10437633;28;20515;-77
2022/07/04 09:43:13;;;;;;;0.00;0.00;;;;;;;22.26;72.85;101991.56;10459797;28;20098;-76
2022/07/04 09:48:15;;;;;;;0.00;0.00;;;;;;;21.82;74.31;101997.00;10458523;28;20071;-76
2022/07/04 09:53:17;;;;;;;0.10;0.10;;;;;;;21.82;75.24;101991.75;10457872;28;20120;-76
2022/07/04 09:58:19;;;;;;;1.60;0.50;;;;;;;21.46;76.86;101998.84;10440103;28;20101;-76
2022/07/04 10:03:22;;;;;;;0.30;0.30;;;;;;;21.95;75.09;101986.44;10455652;28;20064;-76
2022/07/04 10:08:24;;;;;;;0.90;0.80;;;;;;;22.82;72.72;101977.19;10431162;28;20046;-77
2022/07/04 10:13:26;;;;;;;0.17;0.10;;;;;;;21.88;69.42;101975.13;10417328;28;20041;-76
2022/07/04 10:18:27;;;;;;;1.00;0.25;;;;;;;;;;10457238;28;20045;-76
2022/07/04 10:23:33;;;;;;;0.45;0.32;;;;;;;21.86;69.56;101975.13;10452317;28;20117;-76
2022/07/04 10:28:37;;;;;;;0.10;0.10;;;;;;;21.45;73.92;101965.63;10456730;28;20033;-77
2022/07/04 10:33:40;;;;;;;0.13;0.13;;;;;;;21.40;74.09;101962.16;10456770;28;20098;-75
2022/07/04 10:38:53;;;;;;;0.28;0.28;;;;;;;20.89;73.17;101970.94;10461918;28;20044;-76
2022/07/04 10:44:13;;;;;;;0.10;0.10;;;;;;;20.98;74.86;101971.78;10445285;28;20084;-76
2022/07/04 10:49:14;;;;;;;0.15;0.10;;;;;;;21.91;75.18;101966.38;10439252;28;20041;-76
2022/07/04 10:54:28;;;;;;;0.00;0.00;;;;;;;22.50;68.36;101959.94;10450071;28;20053;-75
2022/07/04 10:59:30;;;;;;;0.65;0.10;;;;;;;23.14;65.94;101947.13;10454742;28;20496;-76
2022/07/04 11:04:55;;;;;;;0.10;0.10;;;;;;;22.00;70.53;101954.06;10455840;28;20492;-76
2022/07/04 11:10:12;;;;;;;0.10;0.10;;;;;;;23.40;71.06;101938.13;10455801;28;20049;-75
2022/07/04 11:15:14;;;;;;;0.40;0.40;;;;;;;22.98;64.12;101929.75;10456176;28;20060;-76
2022/07/04 11:20:16;;;;;;;3.53;0.30;;;;;;;23.19;62.34;101933.09;10455326;28;20120;-76
2022/07/04 11:25:27;;;;;;;0.10;0.10;;;;;;;23.59;61.04;101927.38;10437846;28;20045;-76
2022/07/04 11:30:29;;;;;;;0.08;0.08;;;;;;;23.68;63.42;101929.91;10460895;28;20167;-76
2022/07/04 11:35:31;;;;;;;0.65;0.20;;;;;;;23.06;62.24;101925.28;10455959;28;20090;-76
2022/07/04 11:46:19;;;;;;;1.30;0.17;;;;;;;22.87;62.98;101923.75;10454008;28;20052;-75
2022/07/04 11:51:21;;;;;;;0.43;0.32;;;;;;;22.85;67.06;101928.13;10454597;28;20049;-76
2022/07/04 11:56:23;;;;;;;0.30;0.20;;;;;;;22.19;70.39;101933.84;10454931;28;20484;-76
2022/07/04 12:01:28;;;;;;;0.10;0.10;;;;;;;22.78;68.21;101914.19;10423690;28;20037;-77
2022/07/04 12:06:30;;;;;;;0.50;0.50;;;;;;;23.74;68.02;101910.53;10476062;28;20221;-76
2022/07/04 12:11:55;;;;;;;0.17;0.15;;;;;;;23.75;63.65;101905.25;10445727;28;20049;-75
2022/07/04 12:17:19;;;;;;;0.10;0.10;;;;;;;24.54;64.68;101895.31;10461580;28;20076;-76
2022/07/04 12:22:25;;;;;;;0.57;0.57;;;;;;;23.22;56.30;101896.25;10455357;28;20065;-75
2022/07/04 12:27:28;;;;;;;1.52;0.50;;;;;;;24.47;64.17;101888.41;10460760;28;20045;-76
2022/07/04 12:32:47;;;;;;;0.20;0.20;;;;;;;24.18;60.56;101895.00;10452454;28;20052;-76
2022/07/04 12:38:28;;;;;;;0.77;0.38;;;;;;;23.67;60.27;101899.22;10421168;28;20098;-76
2022/07/04 12:43:39;;;;;;;0.03;0.00;;;;;;;23.15;58.74;101895.44;10458654;28;20053;-76
2022/07/04 12:48:41;;;;;;;0.10;0.10;;;;;;;23.34;59.57;101882.97;10457537;28;20103;-76
2022/07/04 12:53:45;;;;;;;0.25;0.25;;;;;;;23.32;62.58;101889.13;10458506;28;20107;-76
2022/07/04 13:05:41;;;;;;;0.32;0.10;;;;;;;24.43;63.34;101878.84;10456168;28;20041;-75
2022/07/04 13:10:43;;;;;;;0.73;0.20;;;;;;;24.31;61.16;101880.75;10443216;28;20381;-76
2022/07/04 13:15:44;;;;;;;0.35;0.20;;;;;;;23.63;57.94;101892.25;10458283;28;20401;-76
2022/07/04 13:21:16;;;;;;;0.10;0.10;;;;;;;24.27;60.22;101876.44;10458502;28;20047;-76
2022/07/04 13:26:18;;;;;;;0.40;0.20;;;;;;;23.04;58.16;101882.41;10449299;28;20124;-76
2022/07/04 13:31:19;;;;;;;0.10;0.10;;;;;;;24.54;59.57;101882.13;10440470;28;20496;-76
2022/07/04 13:36:21;;;;;;;0.68;0.40;;;;;;;23.63;56.46;101881.75;10458675;28;20496;-75
2022/07/04 13:41:24;;;;;;;0.20;0.15;;;;;;;24.38;59.86;101877.16;10458184;28;20488;-77
2022/07/04 13:46:25;;;;;;;2.17;0.20;;;;;;;24.31;50.63;101883.38;10439678;28;20055;-77
2022/07/04 13:51:27;;;;;;;0.15;0.10;;;;;;;24.22;53.02;101887.03;10451804;28;20045;-75
2022/07/04 13:56:37;;;;;;;0.55;0.40;;;;;;;24.61;52.20;101873.22;10415259;28;20045;-76
2022/07/04 14:02:28;;;;;;;0.95;0.10;;;;;;;23.77;55.18;101881.53;10432563;28;20048;-76
2022/07/04 14:14:30;;;;;;;0.13;0.10;;;;;;;24.09;54.24;101874.97;10443503;28;20044;-77
2022/07/04 14:19:32;;;;;;;0.70;0.20;;;;;;;24.20;47.45;101877.44;10452179;28;20040;-76
2022/07/04 14:31:10;;;;;;;0.30;0.10;;;;;;;24.38;49.39;101871.88;10453670;28;20065;-75
2022/07/04 14:36:12;;;;;;;0.35;0.17;;;;;;;24.21;47.01;101876.53;10456372;28;20048;-75
2022/07/04 14:41:13;;;;;;;0.43;0.20;;;;;;;24.28;46.71;101872.94;10469754;28;20496;-76
2022/07/04 14:46:15;;;;;;;0.40;0.10;;;;;;;24.60;50.59;101871.53;10454861;28;20044;-76
2022/07/04 14:51:17;;;;;;;0.45;0.10;;;;;;;24.77;47.30;101865.09;10456120;28;20484;-75
2022/07/04 14:56:21;;;;;;;0.60;0.32;;;;;;;23.87;45.23;101869.09;10456477;28;20040;-76
2022/07/04 15:01:23;;;;;;;2.40;0.20;;;;;;;24.23;51.56;101866.88;10455729;28;20116;-76
2022/07/04 15:06:25;;;;;;;0.35;0.30;;;;;;;24.15;46.11;101874.00;10455883;28;20055;-76
2022/07/04 15:11:26;;;;;;;0.55;0.20;;;;;;;24.00;45.99;101868.09;10438130;28;20111;-75
2022/07/04 15:16:28;;;;;;;0.20;0.10;;;;;;;24.08;47.91;101863.59;10426107;28;20053;-76
2022/07/04 15:26:51;;;;;;;0.85;0.30;;;;;;;24.16;50.22;101859.97;10455323;28;20083;-76
2022/07/04 15:31:52;;;;;;;0.10;0.10;;;;;;;24.33;47.92;101851.78;10424517;28;20041;-76
2022/07/04 15:36:55;;;;;;;0.10;0.10;;;;;;;24.15;46.27;101860.84;10415672;28;20493;-76
2022/07/04 15:41:56;;;;;;;0.13;0.13;;;;;;;24.07;47.11;101856.59;10444860;28;20102;-75
2022/07/04 15:47:09;;;;;;;0.25;0.20;;;;;;;23.93;44.51;101855.91;10463993;28;20049;-76
2022/07/04 15:52:11;;;;;;;0.00;0.00;;;;;;;24.19;47.23;101855.53;10463639;28;20063;-76
2022/07/04 15:57:13;;;;;;;1.55;0.30;;;;;;;24.11;43.21;101851.25;10445546;28;20114;-76
2022/07/04 16:02:15;;;;;;;0.38;0.38;;;;;;;23.07;44.06;101848.19;10446995;28;20484;-75
2022/07/04 16:07:18;;;;;;;0.15;0.13;;;;;;;22.98;46.43;101845.66;10463412;28;20045;-75
2022/07/04 16:12:19;;;;;;;0.15;0.10;;;;;;;23.36;49.74;101841.75;10462945;28;20103;-75
2022/07/04 16:17:21;;;;;;;0.45;0.30;;;;;;;23.55;46.25;101844.16;10463424;28;20048;-75
2022/07/04 16:22:23;;;;;;;0.10;0.10;;;;;;;23.69;46.87;101844.81;10462413;28;20044;-76
2022/07/04 16:27:26;;;;;;;0.17;0.10;;;;;;;23.73;45.15;101838.63;10462390;28;20036;-75
2022/07/04 16:32:28;;;;;;;0.00;0.00;;;;;;;23.53;46.18;101838.88;10463391;28;20134;-76
2022/07/04 16:37:30;;;;;;;0.05;0.05;;;;;;;23.52;45.29;101831.91;10462387;28;20052;-75
2022/07/04 16:42:31;;;;;;;0.03;0.03;;;;;;;23.28;46.88;101836.59;10462077;28;20037;-76
2022/07/04 16:47:34;;;;;;;0.00;0.00;;;;;;;23.37;47.99;101830.34;10443922;28;20419;-76
2022/07/04 16:52:36;;;;;;;0.00;0.00;;;;;;;23.43;47.85;101832.88;10461889;28;20468;-76
2022/07/04 16:57:38;;;;;;;0.00;0.00;;;;;;;22.85;48.20;101841.44;10461425;28;20412;-76
2022/07/04 17:02:40;;;;;;;0.10;0.00;;;;;;;23.04;50.31;101829.84;10426981;28;20053;-76
2022/07/04 17:07:41;;;;;;;0.15;0.15;;;;;;;23.24;50.93;101831.38;10442659;28;20101;-76
2022/07/04 17:12:44;;;;;;;0.52;0.32;;;;;;;23.28;49.31;101833.06;10460020;28;20076;-76
2022/07/04 17:17:46;;;;;;;0.10;0.10;;;;;;;23.04;46.56;101835.09;10460021;28;20045;-76
2022/07/04 17:22:47;;;;;;;0.10;0.10;;;;;;;23.02;48.77;101839.50;10419411;28;20068;-76
2022/07/04 17:34:42;;;;;;;0.35;0.10;;;;;;;22.71;49.19;101845.06;10435477;28;20036;-76
2022/07/04 17:39:45;;;;;;;0.03;0.03;;;;;;;22.66;49.92;101845.13;10458030;28;20073;-75
2022/07/04 17:44:47;;;;;;;0.45;0.30;;;;;;;22.74;52.47;101852.06;10458818;28;20076;-75
2022/07/04 17:49:48;;;;;;;0.05;0.05;;;;;;;22.79;51.57;101845.88;10458599;28;20040;-76
2022/07/04 17:54:50;;;;;;;0.03;0.00;;;;;;;22.38;52.06;101854.94;10458024;28;20076;-76
2022/07/04 17:59:53;;;;;;;0.00;0.00;;;;;;;22.40;51.24;101853.22;10420664;28;20083;-75
2022/07/04 18:04:54;;;;;;;0.00;0.00;;;;;;;21.98;53.36;101855.28;10440121;28;20060;-75
2022/07/04 18:09:56;;;;;;;0.10;0.10;;;;;;;21.85;56.31;101852.72;10458089;28;20077;-75
2022/07/04 18:14:58;;;;;;;0.13;0.10;;;;;;;21.91;61.95;101853.56;10457924;28;20048;-77
2022/07/04 18:19:59;;;;;;;0.20;0.10;;;;;;;21.54;59.84;101854.59;10456327;28;20381;-76
2022/07/04 18:25:03;;;;;;;0.00;0.00;;;;;;;21.42;62.18;101862.53;10457364;28;20554;-76
2022/07/04 18:30:08;;;;;;;0.13;0.13;;;;;;;21.47;63.78;101864.25;10457343;28;20116;-76
2022/07/04 18:35:09;;;;;;;0.30;0.30;;;;;;;21.24;63.49;101867.84;10457127;28;20488;-77
2022/07/04 18:46:10;;;;;;;0.00;0.00;;;;;;;21.02;66.35;101866.16;10400563;28;20084;-75
2022/07/04 18:51:14;;;;;;;0.05;0.05;;;;;;;21.05;66.56;101871.38;10415908;28;20151;-74
2022/07/04 18:56:16;;;;;;;0.10;0.10;;;;;;;20.75;69.73;101873.16;10415477;28;20065;-74
2022/07/04 19:01:18;;;;;;;0.00;0.00;;;;;;;20.59;74.21;101874.91;10415920;28;20095;-75
2022/07/04 19:06:20;;;;;;;0.00;0.00;;;;;;;20.44;73.03;101879.25;10415314;28;20508;-75
2022/07/04 19:11:21;;;;;;;0.00;0.00;;;;;;;20.05;76.54;101874.88;10430539;28;20095;-74
2022/07/04 19:16:24;;;;;;;0.20;0.13;;;;;;;19.69;78.33;101886.94;10465626;28;20049;-74
2022/07/04 19:21:25;;;;;;;0.10;0.10;;;;;;;19.27;75.81;101899.81;10431582;28;20048;-74
2022/07/04 19:26:27;;;;;;;0.03;0.03;;;;;;;19.23;74.82;101900.63;10405407;28;20053;-75
2022/07/04 19:31:31;;;;;;;0.70;0.13;;;;;;;18.95;76.99;101911.78;10430948;28;20033;-75
2022/07/04 19:36:33;;;;;;;0.30;0.28;;;;;;;18.90;77.34;101916.06;10464001;28;20051;-76
2022/07/04 19:41:35;;;;;;;0.35;0.10;;;;;;;18.62;78.35;101923.69;10464297;28;20045;-75
2022/07/04 19:46:36;;;;;;;0.00;0.00;;;;;;;18.44;78.23;101929.59;10463384;28;20396;-75
2022/07/04 19:52:28;;;;;;;0.32;0.10;;;;;;;18.51;80.54;101928.81;10463393;28;20049;-75
2022/07/04 19:57:03;;;;;;;0.10;0.10;;;;;;;18.35;81.80;101933.00;10463318;28;20087;-74
2022/07/04 20:02:04;;;;;;;0.70;0.08;;;;;;;18.11;81.54;101948.41;10463118;28;20151;-75
2022/07/04 20:07:06;;;;;;;0.00;0.00;;;;;;;18.14;84.30;101957.13;10464105;28;20053;-75
2022/07/04 20:12:13;;;;;;;0.00;0.00;;;;;;;17.99;82.95;101960.41;10463952;28;20484;-75
2022/07/04 20:17:16;;;;;;;0.00;0.00;;;;;;;18.01;86.67;101974.34;10462550;28;20099;-75
2022/07/04 20:22:20;;;;;;;0.30;0.10;;;;;;;17.86;88.41;101976.72;10461548;28;20049;-74
2022/07/04 20:27:22;;;;;;;0.20;0.10;;;;;;;17.61;85.83;101989.44;10462184;28;20041;-75
2022/07/04 20:32:26;;;;;;;0.00;0.00;;;;;;;17.65;93.14;102006.88;10461991;28;20087;-75
2022/07/04 20:37:28;;;;;;;0.00;0.00;;;;;;;17.87;86.79;102007.16;10443859;28;20518;-74
2022/07/04 20:42:30;;;;;;;0.30;0.10;;;;;;;17.48;98.75;102008.34;10461443;28;20048;-74
2022/07/04 20:47:33;;;;;;;0.13;0.13;;;;;;;17.70;90.76;102007.81;10462270;28;20385;-74
2022/07/04 20:52:35;;;;;;;0.00;0.00;;;;;;;17.62;95.95;102011.16;10461193;28;20045;-75
2022/07/04 20:57:37;;;;;;;0.10;0.10;;;;;;;17.37;100.00;102022.09;10460990;28;20049;-74
2022/07/04 21:02:39;;;;;;;0.00;0.00;;;;;;;17.31;96.75;102021.13;10460693;28;20037;-74
2022/07/04 21:07:41;;;;;;;0.08;0.00;;;;;;;17.09;98.23;102023.38;10442933;28;20059;-75
2022/07/04 21:12:42;;;;;;;0.20;0.20;;;;;;;17.00;99.95;102016.28;10460372;28;20158;-75
2022/07/04 21:17:47;;;;;;;0.10;0.00;;;;;;;17.00;93.05;102021.50;10460273;28;20048;-75
2022/07/04 21:22:49;;;;;;;0.00;0.00;;;;;;;16.78;93.02;102028.00;10443152;28;20040;-75
2022/07/04 21:27:51;;;;;;;0.20;0.20;;;;;;;16.52;95.24;102038.81;10496606;28;20110;-74
2022/07/04 21:32:53;;;;;;;0.45;0.20;;;;;;;16.47;99.67;102046.53;10482989;28;20098;-74
2022/07/04 21:37:56;;;;;;;0.25;0.25;;;;;;;16.86;100.00;102049.84;10499766;28;20082;-74
2022/07/04 21:42:58;;;;;;;0.05;0.00;;;;;;;16.84;100.00;102051.53;10483903;28;20049;-75
2022/07/04 21:48:02;;;;;;;0.00;0.00;;;;;;;16.59;100.00;102050.19;10500273;28;20373;-74
2022/07/04 21:53:04;;;;;;;0.15;0.15;;;;;;;16.76;100.00;102054.00;10500102;28;20488;-74
2022/07/04 21:58:06;;;;;;;0.05;0.05;;;;;;;16.54;100.00;102063.13;10499935;28;20048;-75
2022/07/04 22:03:08;;;;;;;0.00;0.00;;;;;;;16.45;100.00;102058.63;10499668;28;20608;-74
2022/07/04 22:08:10;;;;;;;0.00;0.00;;;;;;;16.45;100.00;102069.03;10499544;28;20510;-74
2022/07/04 22:13:11;;;;;;;0.08;0.08;;;;;;;16.17;100.00;102068.47;10499904;28;20041;-75
2022/07/04 22:18:13;;;;;;;0.00;0.00;;;;;;;16.10;100.00;102076.97;10499767;28;20488;-75
2022/07/04 22:23:15;;;;;;;0.00;0.00;;;;;;;15.75;100.00;102092.59;10499729;28;20043;-74
2022/07/04 22:28:16;;;;;;;0.00;0.00;;;;;;;15.80;100.00;102087.50;10499474;28;20052;-74
2022/07/04 22:33:18;;;;;;;0.00;0.00;;;;;;;15.52;100.00;102095.53;10498775;28;20048;-75
2022/07/04 22:38:19;;;;;;;0.00;0.00;;;;;;;15.65;100.00;102088.03;10498655;28;20049;-75
2022/07/04 22:43:21;;;;;;;0.10;0.05;;;;;;;15.41;100.00;102093.53;10480480;28;20439;-74
2022/07/04 22:48:23;;;;;;;0.08;0.05;;;;;;;15.50;100.00;102094.63;10498752;28;20123;-74
2022/07/04 22:58:44;;;;;;;;;;;;;;;15.32;100.00;102086.34;10498661;28;20041;-74
2022/07/04 23:03:46;;;;;;;0.43;0.20;;;;;;;15.11;100.00;102089.31;10479978;28;19924;-74
2022/07/04 23:08:48;;;;;;;0.00;0.00;;;;;;;15.16;100.00;102095.47;10498015;28;20040;-74
2022/07/04 23:13:50;;;;;;;0.10;0.10;;;;;;;15.07;100.00;102089.22;10479880;28;20056;-73
2022/07/04 23:18:51;;;;;;;0.00;0.00;;;;;;;14.78;100.00;102100.53;10497819;28;20056;-74
2022/07/04 23:23:53;;;;;;;0.30;0.20;;;;;;;14.90;100.00;102098.25;10479589;28;20511;-74
2022/07/04 23:28:54;;;;;;;0.00;0.00;;;;;;;14.90;100.00;102096.56;10497583;28;20492;-74
2022/07/04 23:33:56;;;;;;;0.10;0.10;;;;;;;14.83;100.00;102104.09;10497449;28;20041;-74
2022/07/04 23:38:58;;;;;;;0.20;0.10;;;;;;;14.85;100.00;102098.16;10498539;28;20048;-74
2022/07/04 23:43:59;;;;;;;0.20;0.13;;;;;;;14.70;100.00;102110.69;10479475;28;20033;-74
2022/07/04 23:49:01;;;;;;;0.22;0.13;;;;;;;14.64;100.00;102098.38;10497255;28;20117;-74
2022/07/04 23:54:03;;;;;;;0.08;0.08;;;;;;;14.60;100.00;102102.59;10497178;28;20103;-74
2022/07/04 23:59:04;;;;;;;0.20;0.10;;;;;;;14.55;100.00;102096.44;10482216;28;20113;-74
